Harleyville, South Carolina
Current Conditions -  °F | °C
As of 3:55 PM on Thursday 23 Oct 2014 (Local Time) from KDYB Reporting Station
Clear Clear  
Wind Chill: 70°   Ceiling: Unl
Heat Index: 70°   Visibility: 10mi
Dew Point: 45°   Wind: 5mph
Humidity: 40%   Direction: 320°NW
Pressure: 30"   Gusts: NA
Location:  33.21°N, 80.45°W
Report Text: KDYB 231955Z AUTO 32004KT 10SM CLR 21/07 A3000 RMK AO1
Loading
Personal Weather Stations






























Interactive Weather Map
Tropical Storm Tracking
New forecast layout! Learn more

10-Day Weather Forecast

Advertisements
Track Severe Weather on mobile